createdAt,value
2023-08-11T00:00:44.065Z,3.35
2023-08-11T00:02:51.163Z,3.65
2023-08-11T00:04:58.251Z,2.95
2023-08-11T00:07:17.863Z,3.08
2023-08-11T00:09:25.174Z,3.75
2023-08-11T00:11:30.683Z,3.40
2023-08-11T00:13:36.672Z,3.38
2023-08-11T00:15:42.297Z,3.80
2023-08-11T00:18:02.943Z,3.50
2023-08-11T00:20:10.120Z,3.40
2023-08-11T00:22:18.505Z,3.40
2023-08-11T00:24:24.532Z,3.53
2023-08-11T00:26:31.956Z,3.67
2023-08-11T00:28:44.746Z,3.72
2023-08-11T00:30:50.149Z,4.28
2023-08-11T00:32:55.846Z,3.80
2023-08-11T00:35:01.789Z,3.92
2023-08-11T00:37:08.398Z,3.83
2023-08-11T00:39:17.083Z,3.80
2023-08-11T00:41:24.826Z,3.50
2023-08-11T00:43:32.318Z,3.40
2023-08-11T00:45:37.900Z,3.15
2023-08-11T00:47:46.771Z,3.53
2023-08-11T00:49:52.945Z,3.67
2023-08-11T00:51:58.904Z,4.32
2023-08-11T00:54:04.727Z,4.45
2023-08-11T00:56:13.573Z,3.58
2023-08-11T00:58:19.005Z,3.10
2023-08-11T01:00:29.452Z,3.83
2023-08-11T01:02:37.224Z,3.60
2023-08-11T01:04:44.115Z,3.38
2023-08-11T01:06:51.294Z,3.93
2023-08-11T01:09:05.593Z,3.35
2023-08-11T01:11:23.513Z,3.20
2023-08-11T01:13:33.150Z,3.38
2023-08-11T01:15:42.107Z,3.10
2023-08-11T01:17:54.709Z,4.03
2023-08-11T01:20:01.605Z,3.80
2023-08-11T01:22:14.329Z,3.43
2023-08-11T01:24:22.717Z,3.45
2023-08-11T01:26:28.166Z,3.92
2023-08-11T01:28:38.726Z,3.53
2023-08-11T01:30:44.166Z,3.47
2023-08-11T01:32:47.279Z,2.97
2023-08-11T01:34:52.952Z,3.50
2023-08-11T01:37:02.056Z,3.80
2023-08-11T01:39:08.922Z,3.53
2023-08-11T01:41:21.574Z,3.80
2023-08-11T01:43:27.776Z,3.38
2023-08-11T01:45:32.924Z,3.55
2023-08-11T01:47:40.639Z,3.53
2023-08-11T01:49:48.099Z,3.30
2023-08-11T01:51:53.669Z,3.88
2023-08-11T01:53:59.887Z,3.60
2023-08-11T01:56:06.359Z,4.15
2023-08-11T01:58:15.542Z,3.65
2023-08-11T02:00:22.075Z,3.22
2023-08-11T02:02:27.781Z,3.53
2023-08-11T02:04:34.366Z,3.28
2023-08-11T02:06:41.596Z,3.30
2023-08-11T02:08:50.472Z,3.72
2023-08-11T02:10:56.201Z,4.00
2023-08-11T02:13:02.110Z,3.60
2023-08-11T02:15:13.025Z,3.95
2023-08-11T02:17:18.472Z,3.03
2023-08-11T02:19:23.994Z,3.15
2023-08-11T02:21:31.821Z,3.50
2023-08-11T02:23:45.021Z,3.28
2023-08-11T02:25:50.771Z,3.58
2023-08-11T02:28:09.594Z,3.20
2023-08-11T02:30:20.009Z,2.90
2023-08-11T02:32:22.968Z,3.50
2023-08-11T02:34:28.681Z,3.13
2023-08-11T02:36:34.070Z,4.00
2023-08-11T02:38:44.203Z,4.20
2023-08-11T02:40:49.847Z,3.70
2023-08-11T02:42:55.660Z,3.88
2023-08-11T02:45:01.035Z,4.07
2023-08-11T02:47:09.648Z,4.50
2023-08-11T02:49:15.029Z,4.50
2023-08-11T02:51:24.461Z,4.50
2023-08-11T02:53:30.139Z,4.25
2023-08-11T02:55:35.826Z,3.67
2023-08-11T02:57:43.734Z,3.78
2023-08-11T02:59:50.434Z,3.70
2023-08-11T03:01:55.780Z,3.85
2023-08-11T03:04:03.990Z,3.60
2023-08-11T03:06:10.834Z,4.30
2023-08-11T03:08:16.560Z,3.72
2023-08-11T03:10:19.432Z,4.05
2023-08-11T03:12:25.733Z,4.22
2023-08-11T03:14:31.444Z,4.45
2023-08-11T03:16:37.898Z,4.63
2023-08-11T03:18:43.397Z,4.20
2023-08-11T03:20:49.483Z,4.40
2023-08-11T03:22:54.920Z,4.38
2023-08-11T03:24:59.662Z,3.60
2023-08-11T03:27:05.762Z,3.70
2023-08-11T03:29:13.089Z,3.88
2023-08-11T03:31:21.777Z,3.70
2023-08-11T03:33:30.119Z,4.68
2023-08-11T03:35:44.034Z,3.88
2023-08-11T03:37:54.514Z,4.25
2023-08-11T03:40:01.971Z,4.15
2023-08-11T03:42:10.103Z,3.67
2023-08-11T03:44:17.533Z,3.60
2023-08-11T03:48:33.568Z,3.70
2023-08-11T03:50:40.022Z,3.30
2023-08-11T03:52:46.355Z,3.45
2023-08-11T03:54:55.159Z,3.13
2023-08-11T03:57:00.911Z,3.22
2023-08-11T03:59:06.982Z,3.15
2023-08-11T04:01:14.126Z,3.40
2023-08-11T04:03:20.670Z,3.70
2023-08-11T04:05:26.401Z,3.80
2023-08-11T04:07:33.670Z,3.88
2023-08-11T04:09:47.798Z,3.87
2023-08-11T04:11:55.901Z,4.15
2023-08-11T04:14:01.847Z,4.28
2023-08-11T04:16:08.014Z,3.90
2023-08-11T04:18:11.975Z,4.05
2023-08-11T04:20:20.917Z,4.40
2023-08-11T04:22:37.257Z,4.40
2023-08-11T04:24:47.058Z,4.32
2023-08-11T04:26:55.335Z,3.83
2023-08-11T04:29:03.203Z,3.47
2023-08-11T04:31:10.789Z,3.85
2023-08-11T04:33:17.751Z,3.03
2023-08-11T04:35:24.160Z,3.60
2023-08-11T04:37:32.801Z,3.47
2023-08-11T04:39:39.435Z,4.00
2023-08-11T04:41:46.695Z,4.30
2023-08-11T04:43:56.072Z,4.78
2023-08-11T04:46:01.820Z,4.35
2023-08-11T04:48:06.212Z,3.83
2023-08-11T04:50:14.634Z,4.40
2023-08-11T04:52:21.080Z,5.13
2023-08-11T04:54:26.583Z,4.72
2023-08-11T04:56:31.971Z,4.93
2023-08-11T04:58:43.168Z,4.93
2023-08-11T05:00:51.338Z,4.72
2023-08-11T05:02:57.639Z,4.35
2023-08-11T05:05:04.588Z,4.22
2023-08-11T05:07:10.652Z,3.60
2023-08-11T05:09:16.303Z,4.15
2023-08-11T05:11:22.720Z,4.55
2023-08-11T05:13:28.069Z,3.55
2023-08-11T05:15:33.827Z,4.45
2023-08-11T05:17:50.282Z,4.25
2023-08-11T05:19:55.692Z,4.85
2023-08-11T05:22:01.333Z,4.15
2023-08-11T05:24:07.356Z,4.75
2023-08-11T05:26:13.060Z,4.70
2023-08-11T05:28:18.538Z,4.55
2023-08-11T05:30:29.953Z,4.45
2023-08-11T05:32:36.470Z,4.18
2023-08-11T05:34:44.471Z,4.18
2023-08-11T05:36:47.479Z,4.15
2023-08-11T05:38:52.894Z,3.85
2023-08-11T05:40:58.790Z,4.55
2023-08-11T05:43:01.601Z,4.18
2023-08-11T05:45:09.028Z,3.78
2023-08-11T05:47:14.446Z,4.55
2023-08-11T05:49:22.132Z,4.50
2023-08-11T05:51:30.558Z,4.90
2023-08-11T05:53:36.105Z,4.80
2023-08-11T05:55:41.491Z,4.57
2023-08-11T05:57:48.237Z,4.85
2023-08-11T05:59:53.910Z,4.63
2023-08-11T06:01:59.711Z,4.65
2023-08-11T06:04:05.633Z,4.93
2023-08-11T06:06:11.328Z,5.30
2023-08-11T06:08:19.246Z,4.63
2023-08-11T06:10:22.107Z,4.70
2023-08-11T06:12:34.437Z,4.65
2023-08-11T06:14:39.910Z,4.72
2023-08-11T06:16:45.320Z,4.25
2023-08-11T06:18:51.418Z,4.70
2023-08-11T06:20:56.822Z,4.60
2023-08-11T06:23:02.243Z,4.15
2023-08-11T06:25:11.570Z,4.30
2023-08-11T06:27:18.518Z,4.10
2023-08-11T06:29:24.361Z,4.10
2023-08-11T06:31:31.489Z,4.30
2023-08-11T06:33:40.534Z,3.78
2023-08-11T06:35:46.448Z,4.22
2023-08-11T06:37:53.204Z,4.07
2023-08-11T06:40:00.057Z,4.55
2023-08-11T06:42:08.245Z,5.15
2023-08-11T06:44:34.486Z,4.88
2023-08-11T06:46:39.861Z,4.47
2023-08-11T06:48:47.593Z,3.90
2023-08-11T06:50:53.597Z,3.70
2023-08-11T06:53:00.679Z,3.60
2023-08-11T06:55:06.783Z,3.95
2023-08-11T06:57:15.975Z,3.53
2023-08-11T06:59:21.468Z,2.97
2023-08-11T07:01:27.198Z,3.72
2023-08-11T07:03:34.985Z,3.35
2023-08-11T07:05:41.004Z,3.60
2023-08-11T07:07:49.564Z,3.42
2023-08-11T07:09:55.231Z,3.50
2023-08-11T07:12:01.757Z,3.65
2023-08-11T07:14:10.072Z,3.90
2023-08-11T07:16:15.731Z,4.15
2023-08-11T07:18:22.088Z,3.10
2023-08-11T07:20:34.026Z,3.42
2023-08-11T07:22:39.764Z,3.58
2023-08-11T07:24:42.537Z,3.35
2023-08-11T07:26:48.240Z,3.22
2023-08-11T07:28:56.097Z,2.95
2023-08-11T07:31:04.131Z,2.60
2023-08-11T07:33:09.762Z,3.40
2023-08-11T07:35:15.483Z,3.38
2023-08-11T07:37:20.884Z,2.97
2023-08-11T07:39:27.978Z,3.38
2023-08-11T07:41:33.437Z,2.88
2023-08-11T07:43:39.127Z,3.35
2023-08-11T07:45:44.661Z,2.85
2023-08-11T07:47:55.538Z,3.35
2023-08-11T07:50:01.381Z,2.80
2023-08-11T07:52:06.988Z,3.28
2023-08-11T07:54:12.568Z,2.97
2023-08-11T07:56:19.323Z,3.70
2023-08-11T07:58:26.990Z,3.70
2023-08-11T08:00:33.028Z,3.40
2023-08-11T08:02:38.886Z,3.63
2023-08-11T08:04:48.544Z,3.05
2023-08-11T08:06:54.056Z,3.00
2023-08-11T08:09:04.230Z,2.72
2023-08-11T08:11:09.683Z,2.70
2023-08-11T08:13:15.758Z,2.50
2023-08-11T08:15:21.965Z,2.78
2023-08-11T08:17:28.604Z,3.03
2023-08-11T08:19:35.582Z,2.70
2023-08-11T08:21:44.484Z,2.80
2023-08-11T08:23:50.283Z,2.38
2023-08-11T08:25:55.745Z,2.22
2023-08-11T08:28:06.617Z,2.83
2023-08-11T08:30:14.415Z,2.10
2023-08-11T08:32:28.234Z,2.72
2023-08-11T08:34:34.237Z,2.30
2023-08-11T08:36:42.242Z,2.30
2023-08-11T08:38:48.458Z,2.63
2023-08-11T08:40:54.138Z,2.17
2023-08-11T08:42:57.446Z,2.20
2023-08-11T08:45:05.105Z,2.10
2023-08-11T08:47:11.698Z,2.67
2023-08-11T08:49:24.560Z,2.50
2023-08-11T08:51:30.445Z,2.42
2023-08-11T08:53:42.871Z,2.10
2023-08-11T08:55:49.685Z,2.20
2023-08-11T08:57:59.057Z,2.22
2023-08-11T09:00:04.936Z,2.67
2023-08-11T09:02:16.439Z,2.20
2023-08-11T09:04:24.454Z,2.40
2023-08-11T09:06:31.889Z,2.25
2023-08-11T09:08:43.370Z,2.05
2023-08-11T09:10:49.407Z,2.40
2023-08-11T09:12:55.232Z,2.30
2023-08-11T09:15:00.894Z,2.47
2023-08-11T09:17:06.810Z,2.50
2023-08-11T09:19:15.873Z,2.75
2023-08-11T09:21:28.637Z,2.15
2023-08-11T09:23:36.004Z,2.78
2023-08-11T09:25:44.243Z,2.45
2023-08-11T09:27:57.729Z,2.20
2023-08-11T09:30:04.630Z,2.25
2023-08-11T09:32:12.199Z,2.30
2023-08-11T09:34:19.656Z,2.65
2023-08-11T09:36:22.757Z,2.17
2023-08-11T09:38:33.327Z,1.90
2023-08-11T09:40:39.267Z,2.03
2023-08-11T09:42:48.848Z,2.10
2023-08-11T09:44:56.185Z,2.30
2023-08-11T09:47:15.261Z,2.20
2023-08-11T09:49:21.931Z,1.85
2023-08-11T09:51:27.788Z,1.92
2023-08-11T09:53:34.419Z,2.13
2023-08-11T09:55:41.557Z,2.10
2023-08-11T09:57:53.277Z,2.00
2023-08-11T10:00:01.701Z,1.83
2023-08-11T10:02:09.836Z,1.80
2023-08-11T10:04:22.039Z,2.47
2023-08-11T10:06:33.888Z,1.92
2023-08-11T10:08:39.750Z,2.03
2023-08-11T10:10:46.481Z,2.10
2023-08-11T10:13:00.684Z,2.13
2023-08-11T10:15:06.677Z,2.00
2023-08-11T10:17:13.772Z,1.98
2023-08-11T10:19:20.566Z,1.58
2023-08-11T10:21:29.887Z,1.92
2023-08-11T10:23:35.427Z,1.85
2023-08-11T10:25:41.201Z,1.80
2023-08-11T10:28:02.927Z,1.70
2023-08-11T10:30:17.191Z,2.10
2023-08-11T10:32:26.532Z,1.85
2023-08-11T10:34:32.888Z,2.03
2023-08-11T10:36:38.825Z,1.73
2023-08-11T10:38:47.589Z,1.85
2023-08-11T10:40:54.039Z,1.92
2023-08-11T10:43:06.358Z,2.35
2023-08-11T10:45:13.574Z,1.85
2023-08-11T10:47:23.609Z,2.00
2023-08-11T10:49:37.339Z,1.73
2023-08-11T10:51:47.161Z,1.80
2023-08-11T10:53:52.067Z,2.00
2023-08-11T10:56:04.623Z,1.90
2023-08-11T10:58:23.428Z,2.00
2023-08-11T11:00:30.044Z,1.75
2023-08-11T11:02:37.325Z,1.50
2023-08-11T11:06:53.640Z,1.75
2023-08-11T11:08:56.848Z,1.63
2023-08-11T11:11:06.995Z,1.60
2023-08-11T11:13:12.795Z,1.83
2023-08-11T11:15:21.091Z,1.55
2023-08-11T11:17:28.159Z,2.00
2023-08-11T11:19:35.730Z,1.50
2023-08-11T11:21:43.934Z,1.50
2023-08-11T11:23:47.413Z,1.70
2023-08-11T11:25:59.312Z,1.60
2023-08-11T11:28:07.379Z,1.60
2023-08-11T11:30:14.013Z,1.83
2023-08-11T11:32:22.340Z,1.70
2023-08-11T11:34:28.181Z,2.03
2023-08-11T11:36:33.665Z,1.60
2023-08-11T11:38:43.209Z,1.50
2023-08-11T11:40:48.643Z,1.50
2023-08-11T11:42:54.603Z,1.80
2023-08-11T11:45:04.385Z,1.90
2023-08-11T11:47:12.715Z,1.50
2023-08-11T11:49:29.761Z,1.67
2023-08-11T11:51:39.164Z,1.60
2023-08-11T11:53:45.760Z,1.90
2023-08-11T11:55:51.984Z,1.90
2023-08-11T11:58:02.922Z,1.67
2023-08-11T12:00:17.614Z,1.50
2023-08-11T12:02:24.195Z,1.63
2023-08-11T12:04:32.416Z,1.90
2023-08-11T12:06:43.830Z,1.88
2023-08-11T12:08:54.635Z,1.30
2023-08-11T12:11:03.390Z,1.30
2023-08-11T12:13:10.089Z,1.67
2023-08-11T12:15:19.008Z,1.20
2023-08-11T12:17:26.629Z,1.83
2023-08-11T12:19:36.962Z,1.55
2023-08-11T12:21:42.597Z,1.38
2023-08-11T12:23:48.277Z,1.80
2023-08-11T12:25:55.300Z,1.90
2023-08-11T12:28:05.642Z,1.50
2023-08-11T12:30:13.290Z,1.70
2023-08-11T12:32:19.192Z,1.27
2023-08-11T12:34:25.266Z,1.50
2023-08-11T12:36:33.276Z,1.40
2023-08-11T12:38:44.386Z,1.30
2023-08-11T12:40:50.821Z,1.30
2023-08-11T12:42:56.557Z,1.60
2023-08-11T12:45:01.931Z,1.52
2023-08-11T12:47:07.843Z,1.50
2023-08-11T12:49:14.378Z,1.27
2023-08-11T12:51:27.248Z,1.40
2023-08-11T12:53:35.220Z,1.20
2023-08-11T12:55:41.989Z,1.63
2023-08-11T12:57:50.329Z,1.67
2023-08-11T12:59:56.281Z,1.45
2023-08-11T13:02:02.623Z,1.40
2023-08-11T13:04:10.153Z,1.50
2023-08-11T13:06:15.556Z,1.40
2023-08-11T13:08:21.189Z,1.65
2023-08-11T13:10:38.055Z,1.60
2023-08-11T13:12:46.243Z,1.35
2023-08-11T13:14:53.719Z,1.40
2023-08-11T13:16:59.219Z,1.55
2023-08-11T13:19:10.079Z,1.42
2023-08-11T13:21:18.191Z,1.40
2023-08-11T13:23:25.753Z,1.48
2023-08-11T13:25:34.023Z,1.60
2023-08-11T13:27:44.061Z,1.20
2023-08-11T13:29:49.979Z,1.67
2023-08-11T13:31:56.143Z,1.27
2023-08-11T13:34:01.839Z,1.40
2023-08-11T13:36:09.808Z,1.58
2023-08-11T13:38:16.179Z,1.40
2023-08-11T13:40:27.633Z,1.55
2023-08-11T13:42:35.987Z,1.30
2023-08-11T13:44:41.578Z,1.38
2023-08-11T13:46:47.115Z,1.60
2023-08-11T13:48:53.910Z,1.20
2023-08-11T13:50:59.532Z,1.65
2023-08-11T13:53:05.614Z,1.70
2023-08-11T13:55:12.837Z,1.20
2023-08-11T13:57:15.684Z,1.70
2023-08-11T13:59:29.865Z,1.65
2023-08-11T14:01:36.198Z,1.40
2023-08-11T14:03:41.613Z,1.40
2023-08-11T14:05:47.603Z,1.75
2023-08-11T14:08:00.366Z,1.20
2023-08-11T14:10:06.269Z,1.52
2023-08-11T14:12:12.366Z,1.60
2023-08-11T14:14:18.200Z,1.45
2023-08-11T14:16:24.506Z,1.38
2023-08-11T14:18:38.299Z,1.50
2023-08-11T14:20:45.368Z,1.67
2023-08-11T14:22:50.855Z,1.73
2023-08-11T14:24:56.259Z,1.50
2023-08-11T14:27:02.142Z,1.38
2023-08-11T14:29:06.836Z,1.48
2023-08-11T14:31:12.820Z,1.45
2023-08-11T14:35:26.124Z,1.98
2023-08-11T14:37:31.733Z,1.60
2023-08-11T14:39:37.112Z,1.88
2023-08-11T14:41:42.811Z,1.65
2023-08-11T14:43:58.060Z,1.38
2023-08-11T14:46:03.934Z,1.73
2023-08-11T14:48:07.834Z,1.63
2023-08-11T14:50:16.078Z,1.80
2023-08-11T14:52:21.709Z,1.60
2023-08-11T14:54:28.035Z,2.38
2023-08-11T14:56:36.211Z,1.85
2023-08-11T14:58:43.588Z,1.52
2023-08-11T15:00:52.703Z,1.60
2023-08-11T15:03:01.277Z,1.45
2023-08-11T15:05:07.542Z,1.63
2023-08-11T15:07:16.887Z,1.58
2023-08-11T15:09:23.236Z,1.50
2023-08-11T15:11:33.071Z,1.60
2023-08-11T15:13:38.507Z,1.40
2023-08-11T15:15:44.234Z,1.75
2023-08-11T15:17:50.125Z,1.40
2023-08-11T15:20:02.098Z,1.65
2023-08-11T15:22:11.211Z,1.73
2023-08-11T15:24:24.331Z,1.55
2023-08-11T15:26:30.220Z,1.70
2023-08-11T15:28:37.201Z,1.60
2023-08-11T15:30:42.677Z,1.50
2023-08-11T15:32:48.338Z,1.77
2023-08-11T15:34:53.861Z,1.60
2023-08-11T15:36:59.566Z,1.77
2023-08-11T15:39:08.091Z,1.80
2023-08-11T15:41:16.104Z,1.45
2023-08-11T15:43:21.527Z,1.40
2023-08-11T15:45:27.240Z,1.55
2023-08-11T15:47:40.371Z,1.38
2023-08-11T15:49:45.879Z,1.55
2023-08-11T15:51:51.534Z,1.50
2023-08-11T15:53:56.969Z,1.60
2023-08-11T15:56:03.073Z,1.85
2023-08-11T15:58:12.441Z,1.70
2023-08-11T16:00:24.316Z,1.63
2023-08-11T16:02:31.479Z,1.73
2023-08-11T16:04:36.994Z,1.52
2023-08-11T16:06:42.650Z,2.03
2023-08-11T16:08:53.972Z,1.42
2023-08-11T16:10:59.479Z,1.65
2023-08-11T16:13:17.022Z,1.77
2023-08-11T16:15:22.425Z,1.65
2023-08-11T16:17:27.885Z,1.45
2023-08-11T16:19:33.808Z,1.40
2023-08-11T16:21:39.662Z,2.17
2023-08-11T16:23:49.592Z,1.93
2023-08-11T16:25:55.263Z,1.85
2023-08-11T16:28:02.972Z,1.70
2023-08-11T16:30:12.839Z,1.90
2023-08-11T16:32:21.610Z,1.80
2023-08-11T16:34:27.870Z,1.70
2023-08-11T16:36:40.855Z,1.80
2023-08-11T16:38:49.216Z,1.60
2023-08-11T16:40:55.035Z,2.05
2023-08-11T16:43:02.501Z,1.35
2023-08-11T16:45:13.411Z,1.70
2023-08-11T16:47:21.757Z,1.40
2023-08-11T16:49:34.773Z,1.55
2023-08-11T16:51:40.244Z,1.55
2023-08-11T16:53:45.975Z,2.40
2023-08-11T16:55:52.080Z,1.73
2023-08-11T16:58:04.416Z,2.83
2023-08-11T17:00:18.136Z,3.70
2023-08-11T17:02:25.502Z,6.07
2023-08-11T17:04:31.405Z,3.15
2023-08-11T17:06:36.906Z,2.72
2023-08-11T17:08:54.621Z,2.70
2023-08-11T17:11:01.629Z,1.73
2023-08-11T17:13:07.307Z,2.05
2023-08-11T17:15:21.752Z,2.08
2023-08-11T17:17:25.181Z,2.35
2023-08-11T17:19:31.405Z,2.30
2023-08-11T17:21:43.441Z,1.45
2023-08-11T17:23:52.465Z,1.50
2023-08-11T17:26:01.631Z,1.60
2023-08-11T17:28:11.747Z,1.88
2023-08-11T17:30:22.050Z,1.60
2023-08-11T17:32:34.089Z,1.88
2023-08-11T17:34:57.231Z,1.60
2023-08-11T17:37:04.268Z,1.70
2023-08-11T17:39:13.221Z,2.03
2023-08-11T17:41:20.319Z,1.38
2023-08-11T17:43:27.579Z,1.73
2023-08-11T17:47:50.290Z,1.70
2023-08-11T17:49:58.054Z,3.00
2023-08-11T17:52:05.567Z,3.28
2023-08-11T17:54:13.910Z,2.15
2023-08-11T17:56:26.251Z,2.60
2023-08-11T17:58:33.755Z,2.88
2023-08-11T18:00:44.631Z,1.80
2023-08-11T18:02:51.415Z,1.90
2023-08-11T18:07:01.183Z,1.77
2023-08-11T18:09:07.846Z,2.00
2023-08-11T18:13:23.302Z,2.50
2023-08-11T18:15:28.865Z,4.45
2023-08-11T18:17:41.712Z,1.80
2023-08-11T18:19:47.170Z,1.92
2023-08-11T18:21:53.697Z,2.13
2023-08-11T18:23:59.145Z,1.88
2023-08-11T18:26:04.782Z,2.08
2023-08-11T18:28:10.544Z,2.60
2023-08-11T18:30:34.531Z,2.35
2023-08-11T18:32:44.187Z,2.33
2023-08-11T18:34:51.543Z,2.45
2023-08-11T18:36:57.332Z,2.25
2023-08-11T18:39:05.428Z,2.42
2023-08-11T18:41:11.806Z,2.10
2023-08-11T18:43:17.212Z,2.78
2023-08-11T18:45:22.646Z,2.75
2023-08-11T18:47:32.131Z,3.10
2023-08-11T18:49:40.392Z,2.75
2023-08-11T18:51:47.914Z,2.97
2023-08-11T18:53:54.186Z,2.42
2023-08-11T18:55:59.584Z,2.80
2023-08-11T18:58:05.005Z,3.10
2023-08-11T19:00:13.935Z,3.25
2023-08-11T19:02:20.986Z,3.28
2023-08-11T19:04:27.246Z,2.78
2023-08-11T19:06:38.609Z,3.20
2023-08-11T19:08:47.453Z,3.50
2023-08-11T19:10:53.056Z,3.45
2023-08-11T19:12:58.466Z,3.83
2023-08-11T19:15:04.256Z,3.42
2023-08-11T19:17:09.667Z,2.65
2023-08-11T19:19:15.687Z,2.90
2023-08-11T19:21:21.097Z,3.08
2023-08-11T19:23:34.049Z,3.08
2023-08-11T19:25:39.639Z,3.10
2023-08-11T19:27:52.249Z,3.17
2023-08-11T19:29:58.287Z,3.42
2023-08-11T19:32:03.903Z,4.35
2023-08-11T19:34:09.739Z,3.97
2023-08-11T19:36:15.130Z,3.97
2023-08-11T19:38:21.239Z,5.15
2023-08-11T19:40:29.226Z,4.60
2023-08-11T19:42:34.596Z,4.95
2023-08-11T19:44:42.247Z,5.60
2023-08-11T19:46:52.154Z,4.75
2023-08-11T19:48:59.368Z,4.13
2023-08-11T19:51:07.859Z,4.38
2023-08-11T19:53:14.787Z,3.30
2023-08-11T19:55:24.731Z,3.60
2023-08-11T19:57:33.093Z,3.20
2023-08-11T19:59:38.485Z,3.60
2023-08-11T20:01:44.104Z,3.38
2023-08-11T20:03:49.876Z,3.25
2023-08-11T20:05:55.336Z,3.78
2023-08-11T20:08:05.938Z,3.38
2023-08-11T20:10:12.511Z,4.00
2023-08-11T20:12:20.535Z,3.37
2023-08-11T20:14:28.553Z,3.75
2023-08-11T20:16:31.742Z,3.40
2023-08-11T20:18:43.375Z,3.92
2023-08-11T20:20:49.074Z,3.50
2023-08-11T20:22:54.458Z,3.78
2023-08-11T20:25:00.433Z,3.55
2023-08-11T20:27:05.914Z,4.38
2023-08-11T20:29:12.367Z,4.07
2023-08-11T20:31:20.448Z,3.70
2023-08-11T20:33:26.005Z,3.38
2023-08-11T20:35:32.006Z,4.30
2023-08-11T20:37:46.385Z,3.97
2023-08-11T20:39:51.889Z,4.53
2023-08-11T20:41:58.846Z,4.93
2023-08-11T20:44:04.324Z,5.60
2023-08-11T20:46:09.818Z,4.63
2023-08-11T20:48:18.348Z,4.20
2023-08-11T20:50:26.406Z,4.47
2023-08-11T20:52:31.860Z,4.47
2023-08-11T20:54:37.501Z,3.67
2023-08-11T20:56:43.267Z,4.18
2023-08-11T20:58:56.875Z,3.45
2023-08-11T21:01:03.179Z,3.42
2023-08-11T21:03:09.361Z,3.63
2023-08-11T21:05:17.801Z,4.10
2023-08-11T21:07:23.437Z,3.50
2023-08-11T21:09:29.451Z,3.85
2023-08-11T21:11:41.933Z,3.78
2023-08-11T21:13:47.896Z,3.85
2023-08-11T21:15:54.200Z,4.30
2023-08-11T21:18:06.236Z,3.40
2023-08-11T21:20:12.876Z,3.20
2023-08-11T21:22:20.949Z,3.40
2023-08-11T21:24:26.384Z,6.00
2023-08-11T21:26:30.137Z,5.25
2023-08-11T21:28:38.462Z,4.47
2023-08-11T21:30:43.967Z,5.28
2023-08-11T21:32:51.606Z,4.53
2023-08-11T21:34:57.383Z,4.25
2023-08-11T21:37:03.881Z,4.43
2023-08-11T21:39:12.138Z,3.88
2023-08-11T21:41:18.140Z,4.05
2023-08-11T21:43:24.981Z,4.47
2023-08-11T21:45:30.368Z,3.90
2023-08-11T21:47:40.039Z,3.88
2023-08-11T21:49:45.520Z,4.40
2023-08-11T21:51:51.812Z,3.95
2023-08-11T21:53:58.662Z,4.28
2023-08-11T21:56:07.264Z,3.85
2023-08-11T21:58:12.753Z,3.72
2023-08-11T22:00:22.593Z,3.92
2023-08-11T22:02:28.592Z,3.67
2023-08-11T22:04:31.472Z,3.60
2023-08-11T22:06:37.374Z,3.60
2023-08-11T22:08:42.949Z,3.70
2023-08-11T22:10:48.473Z,3.15
2023-08-11T22:12:56.899Z,3.55
2023-08-11T22:15:02.347Z,3.40
2023-08-11T22:17:08.971Z,3.35
2023-08-11T22:19:15.850Z,3.85
2023-08-11T22:21:23.544Z,3.37
2023-08-11T22:23:26.749Z,3.72
2023-08-11T22:25:33.507Z,3.97
2023-08-11T22:27:43.965Z,3.90
2023-08-11T22:29:53.040Z,4.00
2023-08-11T22:31:58.828Z,4.30
2023-08-11T22:34:03.797Z,3.90
2023-08-11T22:36:09.940Z,3.40
2023-08-11T22:38:15.877Z,4.00
2023-08-11T22:40:25.585Z,3.80
2023-08-11T22:42:31.827Z,3.70
2023-08-11T22:44:37.378Z,4.22
2023-08-11T22:46:45.640Z,3.95
2023-08-11T22:48:55.594Z,3.70
2023-08-11T22:51:01.034Z,4.10
2023-08-11T22:53:07.787Z,4.30
2023-08-11T22:55:13.417Z,3.63
2023-08-11T22:57:19.645Z,3.88
2023-08-11T22:59:25.090Z,5.00
2023-08-11T23:01:38.425Z,3.83
2023-08-11T23:03:46.872Z,4.18
2023-08-11T23:05:52.330Z,4.43
2023-08-11T23:08:02.548Z,4.18
2023-08-11T23:10:05.920Z,5.32
2023-08-11T23:12:12.917Z,3.75
2023-08-11T23:14:19.982Z,5.88
2023-08-11T23:16:25.469Z,6.47
2023-08-11T23:18:33.744Z,7.38
2023-08-11T23:20:42.852Z,6.88
2023-08-11T23:22:51.162Z,6.60
2023-08-11T23:24:57.452Z,6.50
2023-08-11T23:27:02.860Z,7.55
2023-08-11T23:29:08.722Z,7.10
2023-08-11T23:31:14.178Z,11.90
2023-08-11T23:33:24.783Z,14.40
2023-08-11T23:35:30.556Z,16.40
2023-08-11T23:37:42.051Z,14.27
2023-08-11T23:39:47.842Z,14.10
2023-08-11T23:41:53.491Z,14.43
2023-08-11T23:43:59.279Z,12.52
2023-08-11T23:46:06.335Z,13.13
2023-08-11T23:48:12.653Z,14.60
2023-08-11T23:50:20.622Z,14.90
2023-08-11T23:52:27.792Z,13.48
2023-08-11T23:54:36.723Z,13.80
2023-08-11T23:56:42.264Z,10.93
2023-08-11T23:58:50.758Z,10.85
